createdAt,value
2022-10-14T00:01:49.761Z,6.73
2022-10-14T00:04:16.362Z,8.30
2022-10-14T00:06:42.893Z,8.03
2022-10-14T00:09:11.248Z,8.20
2022-10-14T00:11:37.879Z,8.53
2022-10-14T00:14:10.793Z,8.50
2022-10-14T00:16:40.201Z,7.70
2022-10-14T00:19:10.111Z,8.60
2022-10-14T00:21:37.783Z,9.30
2022-10-14T00:24:05.196Z,8.27
2022-10-14T00:26:32.553Z,9.53
2022-10-14T00:28:59.319Z,9.77
2022-10-14T00:31:26.131Z,8.70
2022-10-14T00:33:52.665Z,8.97
2022-10-14T00:36:19.826Z,9.33
2022-10-14T00:38:46.668Z,9.27
2022-10-14T00:41:14.284Z,8.80
2022-10-14T00:43:51.077Z,9.87
2022-10-14T00:46:17.648Z,8.93
2022-10-14T00:48:44.127Z,9.20
2022-10-14T00:51:11.055Z,9.00
2022-10-14T00:53:37.708Z,8.50
2022-10-14T00:56:04.403Z,8.20
2022-10-14T00:58:31.004Z,8.07
2022-10-14T01:00:57.554Z,8.30
2022-10-14T01:03:24.197Z,7.93
2022-10-14T01:06:00.021Z,9.30
2022-10-14T01:08:28.397Z,9.00
2022-10-14T01:10:59.093Z,9.47
2022-10-14T01:13:31.797Z,8.40
2022-10-14T01:16:10.580Z,8.27
2022-10-14T01:18:43.434Z,8.20
2022-10-14T01:21:13.112Z,9.60
2022-10-14T01:23:40.594Z,8.87
2022-10-14T01:26:07.136Z,8.63
2022-10-14T01:28:52.789Z,9.97
2022-10-14T01:31:23.053Z,8.40
2022-10-14T01:33:51.779Z,11.13
2022-10-14T01:36:32.543Z,11.50
2022-10-14T01:39:03.227Z,11.87
2022-10-14T01:41:30.538Z,12.20
2022-10-14T01:44:00.170Z,10.50
2022-10-14T01:46:26.709Z,9.40
2022-10-14T01:48:54.580Z,12.10
2022-10-14T01:51:22.905Z,11.40
2022-10-14T01:53:52.812Z,10.63
2022-10-14T01:56:19.367Z,11.10
2022-10-14T01:58:45.898Z,9.30
2022-10-14T02:01:12.454Z,11.10
2022-10-14T02:03:42.885Z,10.07
2022-10-14T02:06:11.672Z,10.07
2022-10-14T02:08:59.340Z,9.70
2022-10-14T02:11:25.963Z,10.00
2022-10-14T02:14:17.288Z,11.87
2022-10-14T02:16:48.257Z,11.77
2022-10-14T02:19:24.054Z,10.37
2022-10-14T02:21:53.728Z,11.17
2022-10-14T02:24:24.981Z,10.40
2022-10-14T02:26:51.606Z,10.63
2022-10-14T02:29:18.679Z,10.77
2022-10-14T02:31:45.278Z,10.30
2022-10-14T02:34:12.663Z,10.23
2022-10-14T02:36:39.208Z,10.00
2022-10-14T02:39:06.677Z,8.83
2022-10-14T02:41:34.029Z,9.43
2022-10-14T02:44:00.557Z,10.47
2022-10-14T02:46:29.041Z,10.50
2022-10-14T02:48:55.525Z,10.50
2022-10-14T02:51:22.150Z,9.63
2022-10-14T02:53:48.628Z,10.70
2022-10-14T02:56:15.321Z,11.20
2022-10-14T02:58:41.869Z,10.97
2022-10-14T03:01:08.499Z,10.80
2022-10-14T03:03:36.074Z,10.47
2022-10-14T03:06:03.490Z,10.70
2022-10-14T03:08:30.689Z,10.93
2022-10-14T03:10:58.615Z,10.73
2022-10-14T03:13:26.225Z,9.17
2022-10-14T03:15:52.929Z,11.13
2022-10-14T03:18:19.941Z,10.30
2022-10-14T03:20:48.774Z,10.17
2022-10-14T03:23:23.687Z,11.50
2022-10-14T03:25:53.211Z,10.80
2022-10-14T03:28:25.113Z,11.77
2022-10-14T03:31:12.892Z,10.53
2022-10-14T03:33:52.547Z,10.13
2022-10-14T03:36:19.077Z,10.27
2022-10-14T03:38:50.097Z,11.87
2022-10-14T03:41:32.969Z,11.17
2022-10-14T03:44:00.028Z,11.00
2022-10-14T03:46:26.965Z,10.40
2022-10-14T03:48:53.678Z,10.53
2022-10-14T03:51:20.723Z,10.30
2022-10-14T03:53:47.988Z,10.33
2022-10-14T03:56:23.662Z,9.23
2022-10-14T03:58:51.784Z,9.43
2022-10-14T04:01:19.110Z,10.53
2022-10-14T04:04:08.526Z,10.80
2022-10-14T04:06:36.753Z,10.97
2022-10-14T04:09:05.926Z,9.27
2022-10-14T04:11:36.548Z,10.47
2022-10-14T04:14:09.565Z,11.43
2022-10-14T04:16:48.838Z,15.63
2022-10-14T04:19:17.015Z,14.97
2022-10-14T04:21:43.792Z,16.60
2022-10-14T04:24:10.710Z,12.10
2022-10-14T04:26:42.187Z,16.47
2022-10-14T04:29:15.577Z,15.13
2022-10-14T04:31:52.475Z,14.93
2022-10-14T04:34:19.763Z,14.73
2022-10-14T04:36:46.488Z,13.77
2022-10-14T04:39:31.455Z,13.33
2022-10-14T04:41:58.230Z,13.10
2022-10-14T04:44:24.894Z,13.73
2022-10-14T04:46:53.970Z,14.07
2022-10-14T04:49:24.375Z,13.67
2022-10-14T04:52:07.996Z,14.40
2022-10-14T04:54:51.487Z,12.80
2022-10-14T04:57:27.187Z,12.83
2022-10-14T04:59:53.778Z,12.77
2022-10-14T05:02:32.109Z,12.40
2022-10-14T05:05:00.967Z,12.80
2022-10-14T05:07:31.314Z,11.10
2022-10-14T05:10:09.837Z,11.83
2022-10-14T05:12:41.174Z,11.33
2022-10-14T05:15:09.622Z,11.33
2022-10-14T05:17:47.639Z,11.73
2022-10-14T05:20:17.646Z,10.90
2022-10-14T05:22:48.700Z,11.70
2022-10-14T05:25:15.422Z,11.47
2022-10-14T05:27:42.874Z,10.87
2022-10-14T05:30:11.000Z,12.00
2022-10-14T05:32:43.240Z,11.50
2022-10-14T05:35:10.952Z,11.73
2022-10-14T05:37:39.905Z,10.70
2022-10-14T05:40:07.534Z,11.90
2022-10-14T05:42:36.518Z,12.13
2022-10-14T05:45:04.938Z,12.10
2022-10-14T05:47:34.111Z,13.07
2022-10-14T05:50:12.228Z,15.27
2022-10-14T05:52:42.528Z,13.50
2022-10-14T05:55:22.630Z,16.10
2022-10-14T05:57:55.298Z,17.57
2022-10-14T06:00:25.729Z,19.90
2022-10-14T06:03:01.194Z,19.27
2022-10-14T06:05:29.089Z,17.00
2022-10-14T06:07:55.680Z,19.80
2022-10-14T06:10:22.844Z,17.17
2022-10-14T06:12:49.576Z,18.23
2022-10-14T06:15:16.360Z,18.10
2022-10-14T06:17:43.918Z,17.83
2022-10-14T06:20:10.833Z,31.23
2022-10-14T06:22:37.464Z,18.90
2022-10-14T06:25:04.702Z,18.60
2022-10-14T06:27:31.478Z,18.50
2022-10-14T06:29:58.396Z,18.60
2022-10-14T06:32:25.186Z,19.83
2022-10-14T06:34:51.889Z,19.93
2022-10-14T06:37:18.415Z,20.40
2022-10-14T06:39:45.238Z,23.33
2022-10-14T06:42:13.163Z,21.93
2022-10-14T06:44:40.042Z,21.37
2022-10-14T06:47:06.892Z,38.03
2022-10-14T06:49:35.009Z,29.93
2022-10-14T06:52:01.555Z,21.93
2022-10-14T06:54:28.084Z,22.43
2022-10-14T06:56:57.557Z,21.43
2022-10-14T06:59:24.254Z,19.90
2022-10-14T07:01:51.160Z,20.90
2022-10-14T07:04:17.918Z,21.00
2022-10-14T07:06:44.634Z,20.13
2022-10-14T07:09:11.465Z,18.63
2022-10-14T07:11:38.168Z,19.90
2022-10-14T07:14:04.864Z,18.93
2022-10-14T07:16:31.753Z,18.57
2022-10-14T07:18:59.709Z,20.07
2022-10-14T07:21:26.294Z,18.27
2022-10-14T07:23:54.343Z,18.90
2022-10-14T07:26:21.102Z,18.33
2022-10-14T07:28:47.833Z,19.40
2022-10-14T07:31:14.673Z,19.63
2022-10-14T07:33:41.432Z,18.57
2022-10-14T07:36:10.105Z,19.23
2022-10-14T07:38:37.095Z,19.00
2022-10-14T07:41:04.949Z,19.57
2022-10-14T07:43:32.024Z,19.67
2022-10-14T07:46:02.935Z,19.63
2022-10-14T07:48:32.774Z,20.93
2022-10-14T07:51:06.262Z,19.97
2022-10-14T07:53:33.303Z,20.90
2022-10-14T07:56:00.381Z,20.57
2022-10-14T07:58:27.978Z,20.53
2022-10-14T08:00:54.777Z,20.97
2022-10-14T08:03:21.713Z,20.17
2022-10-14T08:05:50.188Z,19.67
2022-10-14T08:08:17.829Z,20.07
2022-10-14T08:10:44.961Z,19.30
2022-10-14T08:13:11.804Z,19.80
2022-10-14T08:15:40.880Z,19.17
2022-10-14T08:18:07.984Z,18.63
2022-10-14T08:20:34.954Z,18.53
2022-10-14T08:23:02.819Z,19.60
2022-10-14T08:25:30.771Z,18.47
2022-10-14T08:27:58.519Z,19.03
2022-10-14T08:30:25.849Z,18.07
2022-10-14T08:32:52.648Z,17.97
2022-10-14T08:35:19.343Z,18.57
2022-10-14T08:38:01.902Z,18.80
2022-10-14T08:40:29.023Z,18.27
2022-10-14T08:42:55.669Z,18.40
2022-10-14T08:45:28.471Z,19.13
2022-10-14T08:47:56.046Z,19.00
2022-10-14T08:50:29.182Z,18.53
2022-10-14T08:52:57.870Z,19.03
2022-10-14T08:55:37.617Z,19.73
2022-10-14T08:58:13.680Z,18.47
2022-10-14T09:00:41.027Z,19.80
2022-10-14T09:03:13.603Z,20.07
2022-10-14T09:05:40.782Z,21.03
2022-10-14T09:08:08.299Z,19.73
2022-10-14T09:10:36.000Z,19.90
2022-10-14T09:13:09.235Z,19.60
2022-10-14T09:15:40.251Z,18.83
2022-10-14T09:18:25.958Z,19.17
2022-10-14T09:20:52.976Z,18.63
2022-10-14T09:23:20.514Z,18.97
2022-10-14T09:25:51.030Z,18.63
2022-10-14T09:28:19.543Z,18.77
2022-10-14T09:30:46.131Z,17.80
2022-10-14T09:33:14.404Z,17.60
2022-10-14T09:35:41.563Z,17.50
2022-10-14T09:38:08.222Z,17.77
2022-10-14T09:40:35.671Z,15.93
2022-10-14T09:43:08.202Z,16.40
2022-10-14T09:45:53.621Z,17.00
2022-10-14T09:48:41.969Z,15.93
2022-10-14T09:51:10.288Z,15.90
2022-10-14T09:53:42.925Z,16.27
2022-10-14T09:56:10.265Z,15.73
2022-10-14T09:58:47.055Z,15.83
2022-10-14T10:01:14.579Z,15.77
2022-10-14T10:03:41.627Z,15.93
2022-10-14T10:06:13.301Z,15.90
2022-10-14T10:09:00.475Z,15.03
2022-10-14T10:11:37.493Z,15.30
2022-10-14T10:14:30.498Z,15.43
2022-10-14T10:17:18.961Z,15.47
2022-10-14T10:19:51.761Z,15.03
2022-10-14T10:22:24.607Z,14.57
2022-10-14T10:24:52.596Z,14.67
2022-10-14T10:27:26.763Z,15.23
2022-10-14T10:29:55.885Z,14.30
2022-10-14T10:32:22.831Z,14.30
2022-10-14T10:34:52.715Z,14.57
2022-10-14T10:37:20.029Z,14.97
2022-10-14T10:40:14.836Z,15.57
2022-10-14T10:42:51.803Z,15.63
2022-10-14T10:45:42.662Z,15.10
2022-10-14T10:48:21.168Z,14.67
2022-10-14T10:50:58.253Z,15.80
2022-10-14T10:53:29.470Z,15.83
2022-10-14T10:56:11.672Z,16.30
2022-10-14T10:58:42.578Z,16.80
2022-10-14T11:01:09.287Z,15.43
2022-10-14T11:03:56.899Z,15.37
2022-10-14T11:06:50.408Z,15.27
2022-10-14T11:09:49.180Z,15.10
2022-10-14T11:12:38.026Z,15.93
2022-10-14T11:15:04.663Z,15.80
2022-10-14T11:20:25.669Z,15.53
2022-10-14T11:23:05.370Z,14.13
2022-10-14T11:25:35.151Z,15.73
2022-10-14T11:28:11.049Z,15.37
2022-10-14T11:31:01.015Z,13.50
2022-10-14T11:33:39.893Z,15.00
2022-10-14T11:36:18.850Z,15.70
2022-10-14T11:38:49.460Z,16.13
2022-10-14T11:41:19.258Z,15.43
2022-10-14T11:43:49.108Z,16.67
2022-10-14T11:46:19.935Z,16.43
2022-10-14T11:48:46.621Z,16.57
2022-10-14T11:51:35.814Z,17.43
2022-10-14T11:54:04.285Z,16.77
2022-10-14T11:56:40.097Z,17.53
2022-10-14T11:59:42.195Z,16.93
2022-10-14T12:02:47.047Z,16.03
2022-10-14T12:05:19.814Z,14.60
2022-10-14T12:07:58.206Z,14.10
2022-10-14T12:10:30.035Z,14.30
2022-10-14T12:12:56.954Z,13.60
2022-10-14T12:15:24.384Z,14.07
2022-10-14T12:17:53.594Z,14.20
2022-10-14T12:20:40.583Z,12.40
2022-10-14T12:23:07.959Z,12.97
2022-10-14T12:25:39.133Z,13.93
2022-10-14T12:28:05.687Z,11.90
2022-10-14T12:30:32.926Z,11.60
2022-10-14T12:33:09.523Z,10.63
2022-10-14T12:35:52.709Z,11.23
2022-10-14T12:38:20.238Z,12.47
2022-10-14T12:40:49.475Z,13.43
2022-10-14T12:43:21.625Z,13.10
2022-10-14T12:45:49.661Z,13.27
2022-10-14T12:48:19.389Z,12.73
2022-10-14T12:50:47.579Z,12.57
2022-10-14T12:53:21.722Z,12.00
2022-10-14T12:55:49.842Z,11.63
2022-10-14T12:58:28.878Z,11.27
2022-10-14T13:00:59.479Z,11.07
2022-10-14T13:03:27.583Z,10.67
2022-10-14T13:05:54.211Z,10.00
2022-10-14T13:08:21.035Z,9.93
2022-10-14T13:10:48.622Z,10.23
2022-10-14T13:13:33.906Z,10.10
2022-10-14T13:16:00.674Z,9.93
2022-10-14T13:18:44.095Z,10.37
2022-10-14T13:21:32.369Z,9.73
2022-10-14T13:24:00.011Z,10.43
2022-10-14T13:26:39.270Z,10.73
2022-10-14T13:29:13.133Z,13.23
2022-10-14T13:31:43.982Z,13.20
2022-10-14T13:34:13.459Z,12.90
2022-10-14T13:37:00.654Z,11.73
2022-10-14T13:39:53.145Z,12.27
2022-10-14T13:42:24.248Z,12.03
2022-10-14T13:44:51.220Z,12.23
2022-10-14T13:47:18.725Z,11.87
2022-10-14T13:49:46.561Z,12.20
2022-10-14T13:52:15.884Z,11.70
2022-10-14T13:54:43.937Z,12.27
2022-10-14T13:57:48.010Z,12.80
2022-10-14T14:02:51.501Z,11.60
2022-10-14T14:05:24.521Z,11.50
2022-10-14T14:11:03.755Z,11.73
2022-10-14T14:13:27.827Z,11.60
2022-10-14T14:15:55.078Z,11.50
2022-10-14T14:18:55.916Z,10.50
2022-10-14T14:21:30.030Z,11.47
2022-10-14T14:24:01.837Z,11.07
2022-10-14T14:26:28.867Z,11.73
2022-10-14T14:28:55.616Z,10.67
2022-10-14T14:31:22.413Z,11.07
2022-10-14T14:33:49.012Z,10.37
2022-10-14T14:36:27.733Z,10.80
2022-10-14T14:39:01.599Z,11.27
2022-10-14T14:41:29.936Z,11.10
2022-10-14T14:44:24.027Z,11.17
2022-10-14T14:46:45.096Z,11.17
2022-10-14T14:49:12.507Z,11.17
2022-10-14T14:51:39.617Z,11.47
2022-10-14T14:54:06.328Z,11.50
2022-10-14T14:56:40.898Z,11.47
2022-10-14T14:59:16.808Z,10.83
2022-10-14T15:01:43.478Z,10.50
2022-10-14T15:04:19.789Z,11.40
2022-10-14T15:06:50.785Z,11.97
2022-10-14T15:09:23.122Z,12.20
2022-10-14T15:11:54.901Z,12.87
2022-10-14T15:14:27.389Z,13.63
2022-10-14T15:16:54.943Z,14.17
2022-10-14T15:19:21.535Z,14.10
2022-10-14T15:21:53.832Z,15.27
2022-10-14T15:24:20.507Z,15.43
2022-10-14T15:26:47.087Z,14.83
2022-10-14T15:31:46.684Z,15.37
2022-10-14T15:34:17.549Z,16.17
2022-10-14T15:36:44.351Z,14.30
2022-10-14T15:39:14.295Z,15.77
2022-10-14T15:41:41.331Z,15.07
2022-10-14T15:44:09.465Z,14.20
2022-10-14T15:46:54.893Z,13.57
2022-10-14T15:49:24.337Z,12.80
2022-10-14T15:51:51.012Z,14.20
2022-10-14T15:54:17.740Z,13.47
2022-10-14T15:56:44.559Z,15.30
2022-10-14T15:59:11.322Z,13.53
2022-10-14T16:01:38.162Z,15.43
2022-10-14T16:04:06.669Z,14.80
2022-10-14T16:06:33.663Z,14.87
2022-10-14T16:09:00.319Z,17.77
2022-10-14T16:11:27.842Z,19.60
2022-10-14T16:13:54.549Z,25.83
2022-10-14T16:16:47.271Z,21.70
2022-10-14T16:19:14.256Z,27.87
2022-10-14T16:21:41.140Z,26.87
2022-10-14T16:24:08.321Z,26.13
2022-10-14T16:26:35.133Z,25.97
2022-10-14T16:29:03.848Z,25.00
2022-10-14T16:31:30.587Z,25.23
2022-10-14T16:33:57.210Z,25.50
2022-10-14T16:36:26.169Z,24.63
2022-10-14T16:38:56.062Z,24.67
2022-10-14T16:41:31.150Z,24.70
2022-10-14T16:43:59.193Z,25.77
2022-10-14T16:46:46.751Z,24.73
2022-10-14T16:49:14.375Z,25.03
2022-10-14T16:51:44.223Z,25.17
2022-10-14T16:54:11.061Z,25.60
2022-10-14T16:56:52.861Z,25.03
2022-10-14T16:59:22.535Z,24.07
2022-10-14T17:01:49.477Z,24.57
2022-10-14T17:04:20.488Z,23.57
2022-10-14T17:06:51.821Z,24.10
2022-10-14T17:09:26.184Z,23.90
2022-10-14T17:11:56.584Z,24.43
2022-10-14T17:14:26.554Z,24.67
2022-10-14T17:16:55.257Z,21.10
2022-10-14T17:19:22.907Z,22.57
2022-10-14T17:21:51.039Z,21.83
2022-10-14T17:24:17.744Z,23.13
2022-10-14T17:26:45.130Z,22.97
2022-10-14T17:29:11.979Z,22.43
2022-10-14T17:31:42.588Z,23.17
2022-10-14T17:34:11.149Z,22.10
2022-10-14T17:36:37.834Z,24.80
2022-10-14T17:39:05.264Z,25.90
2022-10-14T17:41:31.860Z,25.67
2022-10-14T17:43:59.706Z,24.40
2022-10-14T17:46:27.123Z,23.23
2022-10-14T17:48:58.806Z,24.27
2022-10-14T17:51:28.478Z,21.70
2022-10-14T17:53:59.592Z,20.17
2022-10-14T17:56:26.878Z,20.47
2022-10-14T17:59:02.322Z,21.80
2022-10-14T18:01:37.662Z,23.87
2022-10-14T18:04:12.050Z,28.37
2022-10-14T18:06:42.200Z,27.67
2022-10-14T18:09:11.452Z,25.20
2022-10-14T18:14:29.971Z,20.07
2022-10-14T18:16:59.642Z,20.57
2022-10-14T18:19:28.065Z,23.50
2022-10-14T18:21:54.661Z,20.67
2022-10-14T18:24:23.176Z,21.07
2022-10-14T18:26:52.332Z,20.67
2022-10-14T18:29:23.450Z,22.50
2022-10-14T18:34:20.095Z,22.03
2022-10-14T18:36:47.906Z,20.20
2022-10-14T18:39:16.034Z,21.63
2022-10-14T18:41:46.248Z,20.03
2022-10-14T18:44:20.391Z,21.03
2022-10-14T18:46:48.543Z,22.97
2022-10-14T18:49:15.185Z,22.10
2022-10-14T18:51:43.532Z,25.93
2022-10-14T18:54:17.737Z,26.90
2022-10-14T18:56:44.500Z,21.87
2022-10-14T18:59:14.559Z,21.97
2022-10-14T19:01:42.170Z,22.40
2022-10-14T19:04:09.507Z,22.67
2022-10-14T19:06:37.710Z,21.30
2022-10-14T19:09:04.778Z,23.90
2022-10-14T19:11:33.843Z,23.70
2022-10-14T19:14:06.442Z,32.20
2022-10-14T19:16:36.274Z,25.27
2022-10-14T19:19:08.350Z,25.17
2022-10-14T19:21:35.750Z,31.93
2022-10-14T19:24:03.017Z,36.70
2022-10-14T19:26:35.686Z,33.47
2022-10-14T19:29:04.298Z,30.00
2022-10-14T19:31:36.562Z,28.57
2022-10-14T19:34:04.727Z,27.13
2022-10-14T19:36:33.874Z,32.43
2022-10-14T19:39:00.646Z,29.40
2022-10-14T19:41:28.413Z,35.87
2022-10-14T19:43:56.589Z,33.13
2022-10-14T19:46:24.676Z,30.30
2022-10-14T19:48:52.123Z,32.20
2022-10-14T19:51:22.931Z,38.80
2022-10-14T19:53:49.601Z,40.70
2022-10-14T19:56:16.141Z,45.50
2022-10-14T19:58:44.831Z,40.23
2022-10-14T20:01:15.702Z,38.73
2022-10-14T20:03:44.281Z,50.47
2022-10-14T20:06:12.934Z,40.17
2022-10-14T20:08:41.553Z,38.13
2022-10-14T20:11:09.696Z,41.60
2022-10-14T20:13:38.061Z,56.20
2022-10-14T20:16:06.425Z,74.00
2022-10-14T20:18:33.216Z,70.53
2022-10-14T20:21:04.590Z,57.60
2022-10-14T20:23:35.429Z,57.40
2022-10-14T20:26:03.750Z,56.50
2022-10-14T20:28:31.030Z,53.10
2022-10-14T20:30:59.190Z,51.33
2022-10-14T20:33:26.268Z,47.20
2022-10-14T20:36:02.793Z,47.77
2022-10-14T20:38:33.118Z,48.40
2022-10-14T20:41:14.245Z,47.10
2022-10-14T20:43:41.071Z,45.60
2022-10-14T20:46:07.545Z,42.43
2022-10-14T20:48:35.477Z,40.50
2022-10-14T20:51:04.361Z,39.63
2022-10-14T20:53:31.176Z,41.23
2022-10-14T20:56:07.871Z,38.40
2022-10-14T20:58:34.684Z,44.27
2022-10-14T21:01:07.647Z,40.33
2022-10-14T21:03:34.295Z,40.30
2022-10-14T21:06:01.376Z,39.97
2022-10-14T21:08:28.275Z,47.50
2022-10-14T21:10:59.074Z,48.23
2022-10-14T21:13:25.948Z,49.47
2022-10-14T21:15:52.786Z,60.00
2022-10-14T21:18:19.443Z,53.47
2022-10-14T21:20:47.455Z,51.47
2022-10-14T21:23:16.504Z,54.50
2022-10-14T21:25:43.090Z,51.47
2022-10-14T21:28:09.616Z,51.50
2022-10-14T21:30:40.811Z,49.30
2022-10-14T21:33:07.459Z,47.40
2022-10-14T21:35:33.960Z,50.20
2022-10-14T21:38:00.574Z,50.53
2022-10-14T21:40:28.197Z,49.20
2022-10-14T21:42:54.685Z,50.17
2022-10-14T21:45:23.551Z,48.80
2022-10-14T21:47:53.275Z,48.80
2022-10-14T21:50:20.222Z,45.13
2022-10-14T21:52:46.990Z,44.07
2022-10-14T21:55:14.996Z,44.07
2022-10-14T21:57:41.506Z,43.17
2022-10-14T22:00:09.298Z,42.87
2022-10-14T22:02:36.009Z,44.67
2022-10-14T22:05:02.618Z,50.23
2022-10-14T22:07:29.199Z,49.70
2022-10-14T22:09:55.676Z,46.47
2022-10-14T22:12:22.261Z,47.77
2022-10-14T22:14:48.768Z,48.50
2022-10-14T22:17:15.404Z,42.67
2022-10-14T22:19:41.885Z,48.33
2022-10-14T22:22:08.885Z,45.70
2022-10-14T22:24:36.307Z,48.40
2022-10-14T22:27:02.764Z,47.30
2022-10-14T22:29:29.348Z,46.73
2022-10-14T22:31:56.131Z,49.60
2022-10-14T22:34:22.676Z,47.57
2022-10-14T22:36:49.214Z,44.20
2022-10-14T22:39:16.046Z,48.03
2022-10-14T22:41:42.545Z,50.03
2022-10-14T22:44:09.694Z,44.23
2022-10-14T22:46:36.476Z,39.10
2022-10-14T22:49:04.458Z,39.47
2022-10-14T22:51:32.051Z,37.13
2022-10-14T22:53:59.127Z,31.17
2022-10-14T22:56:26.140Z,32.50
2022-10-14T22:58:56.209Z,31.57
2022-10-14T23:01:22.998Z,34.80
2022-10-14T23:03:49.533Z,33.10
2022-10-14T23:06:16.298Z,42.90
2022-10-14T23:08:42.788Z,41.93
2022-10-14T23:11:10.587Z,44.70
2022-10-14T23:13:37.002Z,43.90
2022-10-14T23:16:04.525Z,38.70
2022-10-14T23:18:32.291Z,38.43
2022-10-14T23:20:58.852Z,39.77
2022-10-14T23:23:25.343Z,42.47
2022-10-14T23:25:51.774Z,41.37
2022-10-14T23:28:18.313Z,44.37
2022-10-14T23:30:44.922Z,43.57
2022-10-14T23:33:11.856Z,42.50
2022-10-14T23:35:38.911Z,40.27
2022-10-14T23:38:05.456Z,41.20
2022-10-14T23:40:31.904Z,45.47
2022-10-14T23:42:58.458Z,46.17
2022-10-14T23:45:24.963Z,46.30
2022-10-14T23:47:51.467Z,45.80
2022-10-14T23:50:18.035Z,43.77
2022-10-14T23:52:45.946Z,45.47
2022-10-14T23:55:12.951Z,49.70
2022-10-14T23:57:40.296Z,46.97
